sensor_id;sensor_type;location;lat;lon;timestamp;P1;durP1;ratioP1;P2;durP2;ratioP2
48268;SDS011;34088;52.232;5.196;2023-05-20T00:01:32;9.38;;;5.05;;
48268;SDS011;34088;52.232;5.196;2023-05-20T00:03:58;9.95;;;5.00;;
48268;SDS011;34088;52.232;5.196;2023-05-20T00:06:24;10.13;;;5.10;;
48268;SDS011;34088;52.232;5.196;2023-05-20T00:08:50;10.20;;;5.45;;
48268;SDS011;34088;52.232;5.196;2023-05-20T00:11:16;10.70;;;5.20;;
48268;SDS011;34088;52.232;5.196;2023-05-20T00:13:42;13.27;;;5.88;;
48268;SDS011;34088;52.232;5.196;2023-05-20T00:16:08;12.63;;;5.25;;
48268;SDS011;34088;52.232;5.196;2023-05-20T00:32:30;11.60;;;5.82;;
48268;SDS011;34088;52.232;5.196;2023-05-20T00:34:56;15.48;;;6.57;;
48268;SDS011;34088;52.232;5.196;2023-05-20T00:37:22;15.23;;;7.03;;
48268;SDS011;34088;52.232;5.196;2023-05-20T00:39:48;14.00;;;6.47;;
48268;SDS011;34088;52.232;5.196;2023-05-20T00:44:46;12.48;;;6.22;;
48268;SDS011;34088;52.232;5.196;2023-05-20T00:47:13;12.88;;;6.60;;
48268;SDS011;34088;52.232;5.196;2023-05-20T00:49:39;14.50;;;6.45;;
48268;SDS011;34088;52.232;5.196;2023-05-20T00:52:05;14.48;;;6.63;;
48268;SDS011;34088;52.232;5.196;2023-05-20T00:54:32;14.02;;;6.68;;
48268;SDS011;34088;52.232;5.196;2023-05-20T00:56:58;16.67;;;6.63;;
48268;SDS011;34088;52.232;5.196;2023-05-20T00:59:24;14.07;;;6.97;;
48268;SDS011;34088;52.232;5.196;2023-05-20T01:01:51;17.50;;;7.03;;
48268;SDS011;34088;52.232;5.196;2023-05-20T01:04:17;15.95;;;6.50;;
48268;SDS011;34088;52.232;5.196;2023-05-20T01:06:43;11.35;;;6.40;;
48268;SDS011;34088;52.232;5.196;2023-05-20T01:09:10;15.63;;;6.60;;
48268;SDS011;34088;52.232;5.196;2023-05-20T01:11:37;10.07;;;6.63;;
48268;SDS011;34088;52.232;5.196;2023-05-20T01:14:06;14.45;;;6.70;;
48268;SDS011;34088;52.232;5.196;2023-05-20T01:16:33;14.38;;;6.20;;
48268;SDS011;34088;52.232;5.196;2023-05-20T01:19:00;15.75;;;6.95;;
48268;SDS011;34088;52.232;5.196;2023-05-20T01:21:29;13.27;;;6.65;;
48268;SDS011;34088;52.232;5.196;2023-05-20T01:23:56;11.90;;;6.70;;
48268;SDS011;34088;52.232;5.196;2023-05-20T01:26:22;16.30;;;6.85;;
48268;SDS011;34088;52.232;5.196;2023-05-20T01:28:50;15.63;;;6.95;;
48268;SDS011;34088;52.232;5.196;2023-05-20T01:31:17;14.95;;;7.20;;
48268;SDS011;34088;52.232;5.196;2023-05-20T01:33:45;13.38;;;6.28;;
48268;SDS011;34088;52.232;5.196;2023-05-20T01:36:12;15.68;;;7.38;;
48268;SDS011;34088;52.232;5.196;2023-05-20T01:38:38;12.23;;;6.90;;
48268;SDS011;34088;52.232;5.196;2023-05-20T01:41:05;15.15;;;7.38;;
48268;SDS011;34088;52.232;5.196;2023-05-20T01:43:32;15.30;;;6.82;;
48268;SDS011;34088;52.232;5.196;2023-05-20T01:45:57;12.18;;;6.38;;
48268;SDS011;34088;52.232;5.196;2023-05-20T01:48:26;13.90;;;6.68;;
48268;SDS011;34088;52.232;5.196;2023-05-20T01:50:52;13.40;;;6.65;;
48268;SDS011;34088;52.232;5.196;2023-05-20T01:53:18;14.98;;;6.65;;
48268;SDS011;34088;52.232;5.196;2023-05-20T01:55:44;13.48;;;7.15;;
48268;SDS011;34088;52.232;5.196;2023-05-20T01:58:10;14.25;;;6.65;;
48268;SDS011;34088;52.232;5.196;2023-05-20T02:00:36;15.25;;;7.25;;
48268;SDS011;34088;52.232;5.196;2023-05-20T02:03:02;16.00;;;7.03;;
48268;SDS011;34088;52.232;5.196;2023-05-20T02:05:28;14.43;;;6.60;;
48268;SDS011;34088;52.232;5.196;2023-05-20T02:07:54;13.18;;;6.45;;
48268;SDS011;34088;52.232;5.196;2023-05-20T02:10:20;17.13;;;7.25;;
48268;SDS011;34088;52.232;5.196;2023-05-20T02:12:46;14.20;;;6.85;;
48268;SDS011;34088;52.232;5.196;2023-05-20T02:15:13;16.90;;;7.10;;
48268;SDS011;34088;52.232;5.196;2023-05-20T02:17:39;15.35;;;6.20;;
48268;SDS011;34088;52.232;5.196;2023-05-20T02:20:07;14.13;;;6.28;;
48268;SDS011;34088;52.232;5.196;2023-05-20T02:22:34;12.50;;;6.60;;
48268;SDS011;34088;52.232;5.196;2023-05-20T02:25:00;11.40;;;6.35;;
48268;SDS011;34088;52.232;5.196;2023-05-20T02:27:26;14.30;;;6.28;;
48268;SDS011;34088;52.232;5.196;2023-05-20T02:29:52;11.65;;;6.43;;
48268;SDS011;34088;52.232;5.196;2023-05-20T02:32:18;15.70;;;6.55;;
48268;SDS011;34088;52.232;5.196;2023-05-20T02:34:45;12.93;;;6.50;;
48268;SDS011;34088;52.232;5.196;2023-05-20T02:37:11;12.43;;;6.85;;
48268;SDS011;34088;52.232;5.196;2023-05-20T02:39:37;13.70;;;6.68;;
48268;SDS011;34088;52.232;5.196;2023-05-20T02:42:03;15.82;;;6.88;;
48268;SDS011;34088;52.232;5.196;2023-05-20T02:44:29;12.55;;;6.55;;
48268;SDS011;34088;52.232;5.196;2023-05-20T02:46:55;14.15;;;7.05;;
48268;SDS011;34088;52.232;5.196;2023-05-20T02:49:21;13.93;;;6.93;;
48268;SDS011;34088;52.232;5.196;2023-05-20T02:51:48;12.05;;;6.93;;
48268;SDS011;34088;52.232;5.196;2023-05-20T02:54:14;12.73;;;6.38;;
48268;SDS011;34088;52.232;5.196;2023-05-20T02:56:40;12.77;;;6.70;;
48268;SDS011;34088;52.232;5.196;2023-05-20T02:59:06;13.68;;;6.38;;
48268;SDS011;34088;52.232;5.196;2023-05-20T03:01:32;15.02;;;6.78;;
48268;SDS011;34088;52.232;5.196;2023-05-20T03:03:59;14.32;;;6.55;;
48268;SDS011;34088;52.232;5.196;2023-05-20T03:06:25;15.63;;;7.00;;
48268;SDS011;34088;52.232;5.196;2023-05-20T03:08:55;12.23;;;6.57;;
48268;SDS011;34088;52.232;5.196;2023-05-20T03:11:22;15.13;;;6.63;;
48268;SDS011;34088;52.232;5.196;2023-05-20T03:13:48;12.82;;;6.45;;
48268;SDS011;34088;52.232;5.196;2023-05-20T03:16:14;11.48;;;6.43;;
48268;SDS011;34088;52.232;5.196;2023-05-20T03:18:40;13.68;;;6.38;;
48268;SDS011;34088;52.232;5.196;2023-05-20T03:21:06;12.80;;;6.72;;
48268;SDS011;34088;52.232;5.196;2023-05-20T03:23:33;14.88;;;6.55;;
48268;SDS011;34088;52.232;5.196;2023-05-20T03:25:59;12.32;;;5.40;;
48268;SDS011;34088;52.232;5.196;2023-05-20T03:28:25;11.80;;;6.05;;
48268;SDS011;34088;52.232;5.196;2023-05-20T03:30:51;12.10;;;6.05;;
48268;SDS011;34088;52.232;5.196;2023-05-20T03:33:17;13.68;;;6.07;;
48268;SDS011;34088;52.232;5.196;2023-05-20T03:35:43;9.35;;;5.40;;
48268;SDS011;34088;52.232;5.196;2023-05-20T03:38:09;9.05;;;6.18;;
48268;SDS011;34088;52.232;5.196;2023-05-20T03:40:35;10.73;;;6.28;;
48268;SDS011;34088;52.232;5.196;2023-05-20T03:43:01;15.23;;;6.63;;
48268;SDS011;34088;52.232;5.196;2023-05-20T03:45:27;13.23;;;6.45;;
48268;SDS011;34088;52.232;5.196;2023-05-20T03:47:53;14.60;;;6.63;;
48268;SDS011;34088;52.232;5.196;2023-05-20T03:50:19;12.65;;;6.70;;
48268;SDS011;34088;52.232;5.196;2023-05-20T03:52:45;15.07;;;6.13;;
48268;SDS011;34088;52.232;5.196;2023-05-20T03:55:11;12.90;;;6.50;;
48268;SDS011;34088;52.232;5.196;2023-05-20T03:57:37;11.98;;;6.95;;
48268;SDS011;34088;52.232;5.196;2023-05-20T04:00:03;10.90;;;6.20;;
48268;SDS011;34088;52.232;5.196;2023-05-20T04:02:35;13.60;;;7.00;;
48268;SDS011;34088;52.232;5.196;2023-05-20T04:05:02;12.77;;;6.50;;
48268;SDS011;34088;52.232;5.196;2023-05-20T04:07:28;12.57;;;6.80;;
48268;SDS011;34088;52.232;5.196;2023-05-20T04:09:54;12.48;;;6.43;;
48268;SDS011;34088;52.232;5.196;2023-05-20T04:12:20;13.82;;;6.65;;
48268;SDS011;34088;52.232;5.196;2023-05-20T04:14:46;12.77;;;6.45;;
48268;SDS011;34088;52.232;5.196;2023-05-20T04:17:14;18.27;;;6.40;;
48268;SDS011;34088;52.232;5.196;2023-05-20T04:19:40;11.60;;;6.22;;
48268;SDS011;34088;52.232;5.196;2023-05-20T04:22:06;13.48;;;6.68;;
48268;SDS011;34088;52.232;5.196;2023-05-20T04:24:32;16.58;;;6.90;;
48268;SDS011;34088;52.232;5.196;2023-05-20T04:26:58;15.55;;;6.55;;
48268;SDS011;34088;52.232;5.196;2023-05-20T04:29:24;12.75;;;6.38;;
48268;SDS011;34088;52.232;5.196;2023-05-20T04:31:50;12.80;;;6.22;;
48268;SDS011;34088;52.232;5.196;2023-05-20T04:34:16;11.65;;;5.90;;
48268;SDS011;34088;52.232;5.196;2023-05-20T04:36:44;11.32;;;5.97;;
48268;SDS011;34088;52.232;5.196;2023-05-20T04:39:10;15.50;;;6.60;;
48268;SDS011;34088;52.232;5.196;2023-05-20T04:41:36;12.32;;;6.60;;
48268;SDS011;34088;52.232;5.196;2023-05-20T04:44:03;11.43;;;5.82;;
48268;SDS011;34088;52.232;5.196;2023-05-20T04:46:30;13.07;;;6.38;;
48268;SDS011;34088;52.232;5.196;2023-05-20T04:48:57;11.32;;;6.05;;
48268;SDS011;34088;52.232;5.196;2023-05-20T04:51:23;14.43;;;6.00;;
48268;SDS011;34088;52.232;5.196;2023-05-20T04:53:49;13.63;;;6.55;;
48268;SDS011;34088;52.232;5.196;2023-05-20T04:56:15;13.27;;;6.90;;
48268;SDS011;34088;52.232;5.196;2023-05-20T04:58:41;13.52;;;6.70;;
48268;SDS011;34088;52.232;5.196;2023-05-20T05:01:07;10.13;;;5.80;;
48268;SDS011;34088;52.232;5.196;2023-05-20T05:03:33;13.52;;;6.43;;
48268;SDS011;34088;52.232;5.196;2023-05-20T05:05:59;12.05;;;6.25;;
48268;SDS011;34088;52.232;5.196;2023-05-20T05:08:25;14.57;;;6.78;;
48268;SDS011;34088;52.232;5.196;2023-05-20T05:10:51;11.52;;;6.53;;
48268;SDS011;34088;52.232;5.196;2023-05-20T05:13:17;12.60;;;6.15;;
48268;SDS011;34088;52.232;5.196;2023-05-20T05:15:43;8.93;;;5.78;;
48268;SDS011;34088;52.232;5.196;2023-05-20T05:18:09;12.93;;;6.18;;
48268;SDS011;34088;52.232;5.196;2023-05-20T05:20:35;10.20;;;6.55;;
48268;SDS011;34088;52.232;5.196;2023-05-20T05:23:01;15.48;;;6.15;;
48268;SDS011;34088;52.232;5.196;2023-05-20T05:25:27;13.52;;;6.20;;
48268;SDS011;34088;52.232;5.196;2023-05-20T05:27:53;13.40;;;6.03;;
48268;SDS011;34088;52.232;5.196;2023-05-20T05:30:19;15.77;;;6.18;;
48268;SDS011;34088;52.232;5.196;2023-05-20T05:32:48;9.90;;;5.85;;
48268;SDS011;34088;52.232;5.196;2023-05-20T05:35:14;12.98;;;5.57;;
48268;SDS011;34088;52.232;5.196;2023-05-20T05:37:40;12.43;;;6.60;;
48268;SDS011;34088;52.232;5.196;2023-05-20T05:40:06;10.60;;;5.90;;
48268;SDS011;34088;52.232;5.196;2023-05-20T05:42:33;12.75;;;6.03;;
48268;SDS011;34088;52.232;5.196;2023-05-20T05:44:59;11.23;;;6.35;;
48268;SDS011;34088;52.232;5.196;2023-05-20T05:47:25;12.23;;;6.20;;
48268;SDS011;34088;52.232;5.196;2023-05-20T05:49:56;11.73;;;5.95;;
48268;SDS011;34088;52.232;5.196;2023-05-20T05:52:22;8.63;;;5.75;;
48268;SDS011;34088;52.232;5.196;2023-05-20T05:54:48;10.90;;;5.75;;
48268;SDS011;34088;52.232;5.196;2023-05-20T05:57:13;12.88;;;5.80;;
48268;SDS011;34088;52.232;5.196;2023-05-20T05:59:40;11.50;;;6.05;;
48268;SDS011;34088;52.232;5.196;2023-05-20T06:02:06;11.18;;;5.72;;
48268;SDS011;34088;52.232;5.196;2023-05-20T06:04:33;11.05;;;6.03;;
48268;SDS011;34088;52.232;5.196;2023-05-20T06:06:59;12.30;;;6.35;;
48268;SDS011;34088;52.232;5.196;2023-05-20T06:09:26;9.65;;;5.82;;
48268;SDS011;34088;52.232;5.196;2023-05-20T06:11:52;12.10;;;6.18;;
48268;SDS011;34088;52.232;5.196;2023-05-20T06:14:18;12.27;;;5.70;;
48268;SDS011;34088;52.232;5.196;2023-05-20T06:16:44;13.27;;;5.57;;
48268;SDS011;34088;52.232;5.196;2023-05-20T06:19:10;12.38;;;6.28;;
48268;SDS011;34088;52.232;5.196;2023-05-20T06:21:36;10.68;;;5.30;;
48268;SDS011;34088;52.232;5.196;2023-05-20T06:24:02;10.60;;;5.60;;
48268;SDS011;34088;52.232;5.196;2023-05-20T06:26:28;11.65;;;5.45;;
48268;SDS011;34088;52.232;5.196;2023-05-20T06:28:54;12.48;;;5.95;;
48268;SDS011;34088;52.232;5.196;2023-05-20T06:31:21;13.15;;;5.60;;
48268;SDS011;34088;52.232;5.196;2023-05-20T06:33:47;9.77;;;6.00;;
48268;SDS011;34088;52.232;5.196;2023-05-20T06:36:13;11.70;;;6.05;;
48268;SDS011;34088;52.232;5.196;2023-05-20T06:38:39;10.55;;;5.35;;
48268;SDS011;34088;52.232;5.196;2023-05-20T06:41:05;12.13;;;5.70;;
48268;SDS011;34088;52.232;5.196;2023-05-20T06:43:31;9.65;;;5.63;;
48268;SDS011;34088;52.232;5.196;2023-05-20T06:45:57;8.68;;;5.15;;
48268;SDS011;34088;52.232;5.196;2023-05-20T06:48:24;12.75;;;5.55;;
48268;SDS011;34088;52.232;5.196;2023-05-20T06:50:50;8.38;;;5.20;;
48268;SDS011;34088;52.232;5.196;2023-05-20T06:53:16;15.98;;;5.90;;
48268;SDS011;34088;52.232;5.196;2023-05-20T06:55:42;8.60;;;5.50;;
48268;SDS011;34088;52.232;5.196;2023-05-20T06:58:08;9.80;;;5.32;;
48268;SDS011;34088;52.232;5.196;2023-05-20T07:00:34;12.13;;;5.55;;
48268;SDS011;34088;52.232;5.196;2023-05-20T07:03:00;11.23;;;5.45;;
48268;SDS011;34088;52.232;5.196;2023-05-20T07:05:26;12.45;;;5.60;;
48268;SDS011;34088;52.232;5.196;2023-05-20T07:07:52;7.07;;;4.63;;
48268;SDS011;34088;52.232;5.196;2023-05-20T07:10:18;11.60;;;5.20;;
48268;SDS011;34088;52.232;5.196;2023-05-20T07:12:44;9.40;;;5.38;;
48268;SDS011;34088;52.232;5.196;2023-05-20T07:15:10;13.35;;;5.97;;
48268;SDS011;34088;52.232;5.196;2023-05-20T07:17:36;10.50;;;5.28;;
48268;SDS011;34088;52.232;5.196;2023-05-20T07:20:02;6.70;;;4.70;;
48268;SDS011;34088;52.232;5.196;2023-05-20T07:22:28;10.38;;;5.15;;
48268;SDS011;34088;52.232;5.196;2023-05-20T07:24:54;9.23;;;5.10;;
48268;SDS011;34088;52.232;5.196;2023-05-20T07:27:20;6.55;;;4.28;;
48268;SDS011;34088;52.232;5.196;2023-05-20T07:29:46;8.00;;;4.75;;
48268;SDS011;34088;52.232;5.196;2023-05-20T07:32:12;9.02;;;4.57;;
48268;SDS011;34088;52.232;5.196;2023-05-20T07:34:38;10.43;;;5.32;;
48268;SDS011;34088;52.232;5.196;2023-05-20T07:37:04;6.63;;;4.60;;
48268;SDS011;34088;52.232;5.196;2023-05-20T07:39:30;5.93;;;4.00;;
48268;SDS011;34088;52.232;5.196;2023-05-20T07:41:56;5.40;;;3.53;;
48268;SDS011;34088;52.232;5.196;2023-05-20T07:44:22;6.18;;;3.90;;
48268;SDS011;34088;52.232;5.196;2023-05-20T07:46:48;9.00;;;4.80;;
48268;SDS011;34088;52.232;5.196;2023-05-20T07:49:14;6.80;;;4.45;;
48268;SDS011;34088;52.232;5.196;2023-05-20T07:51:40;7.90;;;4.35;;
48268;SDS011;34088;52.232;5.196;2023-05-20T07:54:06;5.72;;;4.10;;
48268;SDS011;34088;52.232;5.196;2023-05-20T07:56:32;6.93;;;4.40;;
48268;SDS011;34088;52.232;5.196;2023-05-20T07:58:58;7.28;;;4.10;;
48268;SDS011;34088;52.232;5.196;2023-05-20T08:01:25;9.20;;;4.20;;
48268;SDS011;34088;52.232;5.196;2023-05-20T08:03:51;7.78;;;4.53;;
48268;SDS011;34088;52.232;5.196;2023-05-20T08:06:17;7.20;;;3.55;;
48268;SDS011;34088;52.232;5.196;2023-05-20T08:08:48;7.85;;;4.10;;
48268;SDS011;34088;52.232;5.196;2023-05-20T08:11:14;6.95;;;4.20;;
48268;SDS011;34088;52.232;5.196;2023-05-20T08:13:41;9.13;;;3.75;;
48268;SDS011;34088;52.232;5.196;2023-05-20T08:16:06;6.68;;;3.83;;
48268;SDS011;34088;52.232;5.196;2023-05-20T08:18:33;8.63;;;4.05;;
48268;SDS011;34088;52.232;5.196;2023-05-20T08:21:00;10.18;;;4.03;;
48268;SDS011;34088;52.232;5.196;2023-05-20T08:23:26;7.05;;;3.55;;
48268;SDS011;34088;52.232;5.196;2023-05-20T08:25:52;8.23;;;4.10;;
48268;SDS011;34088;52.232;5.196;2023-05-20T08:28:18;7.30;;;3.42;;
48268;SDS011;34088;52.232;5.196;2023-05-20T08:30:44;11.98;;;3.75;;
48268;SDS011;34088;52.232;5.196;2023-05-20T08:33:12;5.95;;;2.78;;
48268;SDS011;34088;52.232;5.196;2023-05-20T08:35:38;6.63;;;3.50;;
48268;SDS011;34088;52.232;5.196;2023-05-20T08:38:04;6.47;;;3.42;;
48268;SDS011;34088;52.232;5.196;2023-05-20T08:40:31;5.40;;;2.90;;
48268;SDS011;34088;52.232;5.196;2023-05-20T08:42:59;5.43;;;3.40;;
48268;SDS011;34088;52.232;5.196;2023-05-20T08:45:25;3.95;;;2.70;;
48268;SDS011;34088;52.232;5.196;2023-05-20T08:47:52;6.85;;;3.60;;
48268;SDS011;34088;52.232;5.196;2023-05-20T08:50:18;5.72;;;2.65;;
48268;SDS011;34088;52.232;5.196;2023-05-20T08:52:46;4.72;;;2.78;;
48268;SDS011;34088;52.232;5.196;2023-05-20T08:55:27;3.90;;;2.70;;
48268;SDS011;34088;52.232;5.196;2023-05-20T08:57:55;4.72;;;2.53;;
48268;SDS011;34088;52.232;5.196;2023-05-20T09:00:22;6.07;;;2.80;;
48268;SDS011;34088;52.232;5.196;2023-05-20T09:02:52;4.78;;;2.38;;
48268;SDS011;34088;52.232;5.196;2023-05-20T09:05:18;3.15;;;2.10;;
48268;SDS011;34088;52.232;5.196;2023-05-20T09:07:45;8.07;;;2.78;;
48268;SDS011;34088;52.232;5.196;2023-05-20T09:10:11;5.78;;;2.50;;
48268;SDS011;34088;52.232;5.196;2023-05-20T09:12:37;6.78;;;2.72;;
48268;SDS011;34088;52.232;5.196;2023-05-20T09:15:04;4.25;;;2.30;;
48268;SDS011;34088;52.232;5.196;2023-05-20T09:17:31;7.28;;;2.60;;
48268;SDS011;34088;52.232;5.196;2023-05-20T09:19:56;3.33;;;2.33;;
48268;SDS011;34088;52.232;5.196;2023-05-20T09:22:23;3.53;;;2.53;;
48268;SDS011;34088;52.232;5.196;2023-05-20T09:24:50;6.30;;;2.13;;
48268;SDS011;34088;52.232;5.196;2023-05-20T09:27:16;4.60;;;2.40;;
48268;SDS011;34088;52.232;5.196;2023-05-20T09:29:42;4.20;;;2.22;;
48268;SDS011;34088;52.232;5.196;2023-05-20T09:32:11;5.88;;;2.35;;
48268;SDS011;34088;52.232;5.196;2023-05-20T09:34:38;4.93;;;1.83;;
48268;SDS011;34088;52.232;5.196;2023-05-20T09:37:05;3.42;;;1.88;;
48268;SDS011;34088;52.232;5.196;2023-05-20T09:39:32;5.13;;;2.47;;
48268;SDS011;34088;52.232;5.196;2023-05-20T09:42:08;3.58;;;2.10;;
48268;SDS011;34088;52.232;5.196;2023-05-20T09:44:36;3.10;;;2.20;;
48268;SDS011;34088;52.232;5.196;2023-05-20T09:47:03;4.93;;;2.08;;
48268;SDS011;34088;52.232;5.196;2023-05-20T09:49:30;5.65;;;2.20;;
48268;SDS011;34088;52.232;5.196;2023-05-20T09:51:57;4.90;;;2.33;;
48268;SDS011;34088;52.232;5.196;2023-05-20T09:54:24;5.93;;;2.53;;
48268;SDS011;34088;52.232;5.196;2023-05-20T09:56:50;6.95;;;2.65;;
48268;SDS011;34088;52.232;5.196;2023-05-20T09:59:18;6.65;;;2.50;;
48268;SDS011;34088;52.232;5.196;2023-05-20T10:01:46;5.03;;;2.25;;
48268;SDS011;34088;52.232;5.196;2023-05-20T10:04:12;7.32;;;2.40;;
48268;SDS011;34088;52.232;5.196;2023-05-20T10:16:46;4.55;;;2.25;;
48268;SDS011;34088;52.232;5.196;2023-05-20T10:19:28;4.00;;;2.20;;
48268;SDS011;34088;52.232;5.196;2023-05-20T10:21:55;4.25;;;2.13;;
48268;SDS011;34088;52.232;5.196;2023-05-20T10:24:27;5.38;;;2.33;;
48268;SDS011;34088;52.232;5.196;2023-05-20T10:26:54;7.80;;;2.40;;
48268;SDS011;34088;52.232;5.196;2023-05-20T10:29:20;4.15;;;2.20;;
48268;SDS011;34088;52.232;5.196;2023-05-20T10:31:50;3.85;;;2.13;;
48268;SDS011;34088;52.232;5.196;2023-05-20T10:34:19;6.03;;;2.33;;
48268;SDS011;34088;52.232;5.196;2023-05-20T10:36:46;4.15;;;2.20;;
48268;SDS011;34088;52.232;5.196;2023-05-20T10:39:26;5.38;;;2.10;;
48268;SDS011;34088;52.232;5.196;2023-05-20T10:41:52;4.05;;;2.25;;
48268;SDS011;34088;52.232;5.196;2023-05-20T10:44:18;6.05;;;2.53;;
48268;SDS011;34088;52.232;5.196;2023-05-20T10:46:44;4.63;;;2.10;;
48268;SDS011;34088;52.232;5.196;2023-05-20T10:49:17;3.80;;;2.00;;
48268;SDS011;34088;52.232;5.196;2023-05-20T10:51:46;4.40;;;2.20;;
48268;SDS011;34088;52.232;5.196;2023-05-20T10:54:13;7.40;;;2.25;;
48268;SDS011;34088;52.232;5.196;2023-05-20T10:56:49;4.05;;;2.00;;
48268;SDS011;34088;52.232;5.196;2023-05-20T10:59:16;7.35;;;2.50;;
48268;SDS011;34088;52.232;5.196;2023-05-20T11:01:42;7.03;;;2.42;;
48268;SDS011;34088;52.232;5.196;2023-05-20T11:04:08;5.80;;;2.40;;
48268;SDS011;34088;52.232;5.196;2023-05-20T11:06:35;3.53;;;2.28;;
48268;SDS011;34088;52.232;5.196;2023-05-20T11:09:04;6.38;;;2.58;;
48268;SDS011;34088;52.232;5.196;2023-05-20T11:11:31;3.95;;;2.30;;
48268;SDS011;34088;52.232;5.196;2023-05-20T11:13:57;6.05;;;2.35;;
48268;SDS011;34088;52.232;5.196;2023-05-20T11:16:24;4.57;;;2.40;;
48268;SDS011;34088;52.232;5.196;2023-05-20T11:18:50;6.85;;;2.33;;
48268;SDS011;34088;52.232;5.196;2023-05-20T11:21:17;5.15;;;2.30;;
48268;SDS011;34088;52.232;5.196;2023-05-20T11:23:44;4.75;;;2.42;;
48268;SDS011;34088;52.232;5.196;2023-05-20T11:26:10;5.53;;;2.60;;
48268;SDS011;34088;52.232;5.196;2023-05-20T11:28:36;6.32;;;2.88;;
48268;SDS011;34088;52.232;5.196;2023-05-20T11:31:03;5.22;;;2.72;;
48268;SDS011;34088;52.232;5.196;2023-05-20T11:33:29;3.88;;;2.10;;
48268;SDS011;34088;52.232;5.196;2023-05-20T11:35:55;4.85;;;2.33;;
48268;SDS011;34088;52.232;5.196;2023-05-20T11:38:21;5.45;;;2.47;;
48268;SDS011;34088;52.232;5.196;2023-05-20T11:40:51;4.57;;;2.33;;
48268;SDS011;34088;52.232;5.196;2023-05-20T11:43:18;4.25;;;2.30;;
48268;SDS011;34088;52.232;5.196;2023-05-20T11:45:44;6.30;;;2.38;;
48268;SDS011;34088;52.232;5.196;2023-05-20T11:48:11;8.25;;;2.50;;
48268;SDS011;34088;52.232;5.196;2023-05-20T11:50:40;3.67;;;2.20;;
48268;SDS011;34088;52.232;5.196;2023-05-20T11:53:07;5.15;;;1.92;;
48268;SDS011;34088;52.232;5.196;2023-05-20T11:55:34;4.65;;;2.17;;
48268;SDS011;34088;52.232;5.196;2023-05-20T11:58:09;5.40;;;2.30;;
48268;SDS011;34088;52.232;5.196;2023-05-20T12:00:35;4.40;;;2.30;;
48268;SDS011;34088;52.232;5.196;2023-05-20T12:03:01;3.15;;;2.35;;
48268;SDS011;34088;52.232;5.196;2023-05-20T12:05:27;6.40;;;2.22;;
48268;SDS011;34088;52.232;5.196;2023-05-20T12:07:53;6.65;;;2.47;;
48268;SDS011;34088;52.232;5.196;2023-05-20T12:10:19;3.13;;;2.05;;
48268;SDS011;34088;52.232;5.196;2023-05-20T12:12:45;5.30;;;2.20;;
48268;SDS011;34088;52.232;5.196;2023-05-20T12:15:11;6.38;;;2.30;;
48268;SDS011;34088;52.232;5.196;2023-05-20T12:17:44;6.72;;;2.75;;
48268;SDS011;34088;52.232;5.196;2023-05-20T12:20:11;6.55;;;3.03;;
48268;SDS011;34088;52.232;5.196;2023-05-20T12:22:38;3.53;;;2.40;;
48268;SDS011;34088;52.232;5.196;2023-05-20T12:25:04;6.75;;;2.22;;
48268;SDS011;34088;52.232;5.196;2023-05-20T12:27:30;6.28;;;2.17;;
48268;SDS011;34088;52.232;5.196;2023-05-20T12:29:59;5.72;;;2.20;;
48268;SDS011;34088;52.232;5.196;2023-05-20T12:32:25;5.32;;;2.25;;
48268;SDS011;34088;52.232;5.196;2023-05-20T12:34:51;5.82;;;2.10;;
48268;SDS011;34088;52.232;5.196;2023-05-20T12:37:17;6.85;;;2.25;;
48268;SDS011;34088;52.232;5.196;2023-05-20T12:39:43;8.10;;;2.38;;
48268;SDS011;34088;52.232;5.196;2023-05-20T12:42:10;5.72;;;2.63;;
48268;SDS011;34088;52.232;5.196;2023-05-20T12:44:36;5.88;;;2.53;;
48268;SDS011;34088;52.232;5.196;2023-05-20T12:47:02;4.50;;;2.40;;
48268;SDS011;34088;52.232;5.196;2023-05-20T12:49:28;5.00;;;2.20;;
48268;SDS011;34088;52.232;5.196;2023-05-20T12:51:54;7.18;;;2.80;;
48268;SDS011;34088;52.232;5.196;2023-05-20T12:54:20;4.53;;;2.17;;
48268;SDS011;34088;52.232;5.196;2023-05-20T12:56:46;4.40;;;2.53;;
48268;SDS011;34088;52.232;5.196;2023-05-20T12:59:12;6.82;;;2.40;;
48268;SDS011;34088;52.232;5.196;2023-05-20T13:01:38;6.93;;;2.22;;
48268;SDS011;34088;52.232;5.196;2023-05-20T13:04:05;3.17;;;2.15;;
48268;SDS011;34088;52.232;5.196;2023-05-20T13:06:32;8.35;;;2.05;;
48268;SDS011;34088;52.232;5.196;2023-05-20T13:08:58;3.85;;;1.73;;
48268;SDS011;34088;52.232;5.196;2023-05-20T13:11:24;3.60;;;1.70;;
48268;SDS011;34088;52.232;5.196;2023-05-20T13:13:50;3.95;;;1.90;;
48268;SDS011;34088;52.232;5.196;2023-05-20T13:16:16;6.35;;;2.28;;
48268;SDS011;34088;52.232;5.196;2023-05-20T13:18:42;3.38;;;1.80;;
48268;SDS011;34088;52.232;5.196;2023-05-20T13:21:08;3.65;;;1.80;;
48268;SDS011;34088;52.232;5.196;2023-05-20T13:23:35;6.50;;;3.03;;
48268;SDS011;34088;52.232;5.196;2023-05-20T13:26:01;8.43;;;2.28;;
48268;SDS011;34088;52.232;5.196;2023-05-20T13:28:27;4.70;;;2.08;;
48268;SDS011;34088;52.232;5.196;2023-05-20T13:30:53;7.00;;;1.95;;
48268;SDS011;34088;52.232;5.196;2023-05-20T13:33:19;4.32;;;1.70;;
48268;SDS011;34088;52.232;5.196;2023-05-20T13:35:47;3.45;;;1.75;;
48268;SDS011;34088;52.232;5.196;2023-05-20T13:38:14;5.43;;;1.90;;
48268;SDS011;34088;52.232;5.196;2023-05-20T13:40:40;5.50;;;2.08;;
48268;SDS011;34088;52.232;5.196;2023-05-20T13:43:06;3.13;;;1.70;;
48268;SDS011;34088;52.232;5.196;2023-05-20T13:45:32;6.50;;;2.30;;
48268;SDS011;34088;52.232;5.196;2023-05-20T13:47:58;6.03;;;2.10;;
48268;SDS011;34088;52.232;5.196;2023-05-20T13:50:24;4.93;;;1.73;;
48268;SDS011;34088;52.232;5.196;2023-05-20T13:52:50;5.47;;;2.10;;
48268;SDS011;34088;52.232;5.196;2023-05-20T13:55:16;5.00;;;1.70;;
48268;SDS011;34088;52.232;5.196;2023-05-20T13:57:42;6.05;;;2.20;;
48268;SDS011;34088;52.232;5.196;2023-05-20T14:00:08;5.55;;;2.42;;
48268;SDS011;34088;52.232;5.196;2023-05-20T14:02:34;4.47;;;1.90;;
48268;SDS011;34088;52.232;5.196;2023-05-20T14:05:00;6.57;;;2.45;;
48268;SDS011;34088;52.232;5.196;2023-05-20T14:07:27;5.78;;;2.22;;
48268;SDS011;34088;52.232;5.196;2023-05-20T14:09:53;3.45;;;2.08;;
48268;SDS011;34088;52.232;5.196;2023-05-20T14:12:19;5.10;;;1.70;;
48268;SDS011;34088;52.232;5.196;2023-05-20T14:14:46;3.88;;;1.77;;
48268;SDS011;34088;52.232;5.196;2023-05-20T14:17:12;5.05;;;1.92;;
48268;SDS011;34088;52.232;5.196;2023-05-20T14:19:38;8.05;;;1.90;;
48268;SDS011;34088;52.232;5.196;2023-05-20T14:22:05;4.50;;;1.80;;
48268;SDS011;34088;52.232;5.196;2023-05-20T14:24:30;5.88;;;2.10;;
48268;SDS011;34088;52.232;5.196;2023-05-20T14:26:56;5.00;;;1.90;;
48268;SDS011;34088;52.232;5.196;2023-05-20T14:29:22;6.18;;;2.10;;
48268;SDS011;34088;52.232;5.196;2023-05-20T14:31:48;5.32;;;1.95;;
48268;SDS011;34088;52.232;5.196;2023-05-20T14:34:14;6.18;;;3.58;;
48268;SDS011;34088;52.232;5.196;2023-05-20T14:36:40;5.43;;;4.00;;
48268;SDS011;34088;52.232;5.196;2023-05-20T14:39:06;12.93;;;10.75;;
48268;SDS011;34088;52.232;5.196;2023-05-20T14:41:33;7.13;;;3.85;;
48268;SDS011;34088;52.232;5.196;2023-05-20T14:43:59;5.05;;;2.20;;
48268;SDS011;34088;52.232;5.196;2023-05-20T14:46:25;3.50;;;2.05;;
48268;SDS011;34088;52.232;5.196;2023-05-20T14:48:51;4.18;;;2.20;;
48268;SDS011;34088;52.232;5.196;2023-05-20T14:51:17;4.35;;;2.10;;
48268;SDS011;34088;52.232;5.196;2023-05-20T14:53:43;3.38;;;2.10;;
48268;SDS011;34088;52.232;5.196;2023-05-20T14:56:09;6.95;;;2.30;;
48268;SDS011;34088;52.232;5.196;2023-05-20T14:58:35;3.33;;;1.90;;
48268;SDS011;34088;52.232;5.196;2023-05-20T15:01:01;2.88;;;1.77;;
48268;SDS011;34088;52.232;5.196;2023-05-20T15:03:27;3.05;;;1.70;;